Wetterdaten: Woche 02.09.19 - 08.09.19 (KW36)
Datum Zeit Temp. Aussen Temp. o. S. +5cm Feuchte Auss Luftdruck Regen Sonnenschein Regendauer Solar Windben Empfang
02.09.2019 00:00 13,3 C 11,6 C 11,4 C 77 % 1020,3 hPa 0,0 l/m 0,00 h 0,00 h 0 W/m 0,0 km/h (0 Bft) 97,30 %
02.09.2019 01:00 12,5 C 10,8 C 10,7 C 80 % 1020,9 hPa 0,0 l/m 0,00 h 0,00 h 0 W/m 0,2 km/h (0 Bft) 96,47 %
02.09.2019 02:00 11,7 C 10,2 C 10,0 C 82 % 1021,1 hPa 0,0 l/m 0,00 h 0,00 h 0 W/m 0,0 km/h (0 Bft) 98,15 %
02.09.2019 03:00 11,2 C 9,9 C 9,6 C 84 % 1021,4 hPa 0,0 l/m 0,00 h 0,00 h 0 W/m 0,1 km/h (0 Bft) 96,87 %
02.09.2019 04:00 10,8 C 9,4 C 9,3 C 86 % 1021,5 hPa 0,0 l/m 0,00 h 0,00 h 0 W/m 0,1 km/h (0 Bft) 99,36 %
02.09.2019 05:00 10,4 C 8,8 C 8,6 C 87 % 1021,6 hPa 0,0 l/m 0,00 h 0,00 h 0 W/m 0,2 km/h (0 Bft) 95,30 %
02.09.2019 06:00 9,9 C 8,7 C 8,3 C 88 % 1022,1 hPa 0,0 l/m 0,00 h 0,00 h 6 W/m 0,0 km/h (0 Bft) 97,17 %
02.09.2019 07:00 9,8 C 9,5 C 9,0 C 90 % 1022,7 hPa 0,0 l/m 0,00 h 0,00 h 18 W/m 0,3 km/h (0 Bft) 98,14 %
02.09.2019 08:00 10,7 C 11,7 C 11,1 C 92 % 1023,3 hPa 0,0 l/m 0,00 h 0,00 h 42 W/m 2,4 km/h (1 Bft) 99,22 %
02.09.2019 09:00 13,7 C 18,5 C 15,1 C 85 % 1023,7 hPa 0,0 l/m 0,97 h 0,00 h 383 W/m 5,9 km/h (2 Bft) 95,94 %
02.09.2019 10:00 17,7 C 23,3 C 23,2 C 71 % 1024,1 hPa 0,0 l/m 1,00 h 0,00 h 558 W/m 7,6 km/h (2 Bft) 97,43 %
02.09.2019 11:00 19,6 C 24,6 C 20,1 C 65 % 1024,3 hPa 0,0 l/m 0,97 h 0,00 h 673 W/m 11,1 km/h (2 Bft) 95,83 %
02.09.2019 12:00 20,5 C 25,7 C 19,9 C 57 % 1024,2 hPa 0,0 l/m 0,90 h 0,00 h 699 W/m 8,4 km/h (2 Bft) 98,20 %
02.09.2019 13:00 22,3 C 27,9 C 22,8 C 52 % 1024,2 hPa 0,0 l/m 0,93 h 0,00 h 791 W/m 8,8 km/h (2 Bft) 97,79 %
02.09.2019 14:00 23,3 C 28,3 C 23,4 C 48 % 1024,1 hPa 0,0 l/m 1,00 h 0,00 h 831 W/m 9,4 km/h (2 Bft) 98,22 %
02.09.2019 15:00 23,4 C 28,2 C 22,3 C 47 % 1023,9 hPa 0,0 l/m 0,90 h 0,00 h 707 W/m 10,1 km/h (2 Bft) 96,08 %
02.09.2019 16:00 22,8 C 24,9 C 22,2 C 48 % 1023,7 hPa 0,0 l/m 0,53 h 0,00 h 375 W/m 6,9 km/h (2 Bft) 97,72 %
02.09.2019 17:00 22,9 C 26,0 C 21,4 C 47 % 1023,6 hPa 0,0 l/m 1,00 h 0,00 h 448 W/m 8,7 km/h (2 Bft) 99,57 %
02.09.2019 18:00 22,1 C 21,6 C 19,9 C 49 % 1023,7 hPa 0,0 l/m 0,40 h 0,00 h 150 W/m 5,4 km/h (1 Bft) 94,62 %
02.09.2019 19:00 20,2 C 18,4 C 17,8 C 54 % 1023,6 hPa 0,0 l/m 0,00 h 0,00 h 26 W/m 2,0 km/h (1 Bft) 98,65 %
02.09.2019 20:00 18,4 C 15,6 C 14,4 C 58 % 1023,8 hPa 0,0 l/m 0,00 h 0,00 h 6 W/m 0,1 km/h (0 Bft) 98,55 %
02.09.2019 21:00 16,4 C 14,2 C 13,3 C 63 % 1024,5 hPa 0,0 l/m 0,00 h 0,00 h 0 W/m 0,0 km/h (0 Bft) 97,72 %
02.09.2019 22:00 15,3 C 13,5 C 12,5 C 67 % 1024,5 hPa 0,0 l/m 0,00 h 0,00 h 0 W/m 0,0 km/h (0 Bft) 95,58 %
02.09.2019 23:00 14,3 C 11,9 C 11,6 C 71 % 1024,5 hPa 0,0 l/m 0,00 h 0,00 h 0 W/m 0,0 km/h (0 Bft) 98,22 %
03.09.2019 00:00 13,3 C 12,5 C 11,6 C 76 % 1024,3 hPa 0,0 l/m 0,00 h 0,00 h 0 W/m 0,3 km/h (0 Bft) 97,82 %
03.09.2019 01:00 13,2 C 11,8 C 11,2 C 76 % 1024,4 hPa 0,0 l/m 0,00 h 0,00 h 0 W/m 0,0 km/h (0 Bft) 97,74 %
03.09.2019 02:00 12,6 C 12,0 C 11,1 C 77 % 1024,2 hPa 0,0 l/m 0,00 h 0,00 h 0 W/m 1,6 km/h (1 Bft) 97,18 %
03.09.2019 03:00 13,2 C 12,9 C 12,5 C 75 % 1023,9 hPa 0,0 l/m 0,00 h 0,00 h 0 W/m 7,0 km/h (2 Bft) 97,01 %
03.09.2019 04:00 13,2 C 12,5 C 12,3 C 74 % 1023,7 hPa 0,0 l/m 0,00 h 0,00 h 0 W/m 8,7 km/h (2 Bft) 97,45 %
03.09.2019 05:00 13,8 C 13,1 C 13,0 C 75 % 1023,4 hPa 0,0 l/m 0,00 h 0,00 h 0 W/m 7,1 km/h (2 Bft) 97,66 %
03.09.2019 06:00 13,7 C 12,8 C 12,4 C 77 % 1023,5 hPa 0,0 l/m 0,00 h 0,00 h 5 W/m 10,1 km/h (2 Bft) 96,47 %
03.09.2019 07:00 13,6 C 13,3 C 12,8 C 82 % 1023,7 hPa 0,0 l/m 0,00 h 0,00 h 24 W/m 12,3 km/h (3 Bft) 96,22 %
03.09.2019 08:00 14,5 C 14,5 C 14,0 C 83 % 1023,8 hPa 0,0 l/m 0,00 h 0,00 h 74 W/m 13,5 km/h (3 Bft) 98,42 %
03.09.2019 09:00 15,8 C 18,6 C 16,6 C 83 % 1024,2 hPa 0,0 l/m 0,73 h 0,00 h 324 W/m 14,0 km/h (3 Bft) 97,58 %
03.09.2019 10:00 18,8 C 23,3 C 23,2 C 75 % 1024,4 hPa 0,0 l/m 1,00 h 0,00 h 559 W/m 15,5 km/h (3 Bft) 98,81 %
03.09.2019 11:00 19,9 C 22,1 C 20,3 C 68 % 1024,3 hPa 0,0 l/m 0,63 h 0,00 h 417 W/m 15,1 km/h (3 Bft) 98,08 %
03.09.2019 12:00 20,6 C 22,1 C 20,7 C 64 % 1024,2 hPa 0,0 l/m 0,40 h 0,00 h 406 W/m 18,8 km/h (3 Bft) 95,91 %
03.09.2019 13:00 20,1 C 20,1 C 19,9 C 66 % 1024,3 hPa 0,0 l/m 0,00 h 0,00 h 198 W/m 13,8 km/h (3 Bft) 98,49 %
03.09.2019 14:00 20,3 C 20,4 C 20,0 C 66 % 1024,4 hPa 0,0 l/m 0,00 h 0,00 h 193 W/m 11,7 km/h (2 Bft) 97,87 %
03.09.2019 15:00 19,7 C 19,3 C 19,2 C 67 % 1024,3 hPa 0,0 l/m 0,00 h 0,00 h 117 W/m 10,5 km/h (2 Bft) 97,24 %
03.09.2019 16:00 19,6 C 19,5 C 19,2 C 69 % 1024,0 hPa 0,0 l/m 0,00 h 0,00 h 114 W/m 7,8 km/h (2 Bft) 96,50 %
03.09.2019 17:00 19,5 C 18,5 C 18,4 C 70 % 1023,8 hPa 0,0 l/m 0,00 h 0,00 h 52 W/m 7,0 km/h (2 Bft) 97,93 %
03.09.2019 18:00 18,8 C 18,2 C 17,8 C 72 % 1023,6 hPa 0,0 l/m 0,00 h 0,00 h 56 W/m 5,1 km/h (1 Bft) 98,19 %
03.09.2019 19:00 18,7 C 18,0 C 17,7 C 72 % 1023,3 hPa 0,0 l/m 0,00 h 0,00 h 39 W/m 7,1 km/h (2 Bft) 95,66 %
03.09.2019 20:00 18,3 C 17,0 C 17,0 C 73 % 1023,2 hPa 0,0 l/m 0,00 h 0,00 h 6 W/m 2,2 km/h (1 Bft) 98,36 %
03.09.2019 21:00 17,8 C 16,7 C 16,7 C 75 % 1023,2 hPa 0,0 l/m 0,00 h 0,00 h 0 W/m 5,1 km/h (1 Bft) 98,00 %
03.09.2019 22:00 17,5 C 16,4 C 16,2 C 77 % 1022,8 hPa 0,0 l/m 0,00 h 0,00 h 0 W/m 4,0 km/h (1 Bft) 96,51 %
03.09.2019 23:00 17,2 C 16,1 C 16,1 C 79 % 1022,6 hPa 0,0 l/m 0,00 h 0,00 h 0 W/m 4,4 km/h (1 Bft) 97,94 %
04.09.2019 00:00 16,9 C 16,1 C 15,6 C 81 % 1022,2 hPa 0,0 l/m 0,00 h 0,00 h 0 W/m 7,2 km/h (2 Bft) 98,42 %
04.09.2019 01:00 16,8 C 16,1 C 15,9 C 81 % 1021,7 hPa 0,0 l/m 0,00 h 0,00 h 0 W/m 5,7 km/h (1 Bft) 96,94 %
04.09.2019 02:00 16,7 C 15,7 C 15,6 C 82 % 1021,2 hPa 0,0 l/m 0,00 h 0,00 h 0 W/m 4,6 km/h (1 Bft) 98,01 %
04.09.2019 03:00 16,5 C 15,6 C 15,5 C 82 % 1020,5 hPa 0,0 l/m 0,00 h 0,00 h 0 W/m 5,8 km/h (2 Bft) 97,51 %
04.09.2019 04:00 16,3 C 15,6 C 15,0 C 83 % 1019,7 hPa 0,0 l/m 0,00 h 0,00 h 0 W/m 3,5 km/h (1 Bft) 97,86 %
04.09.2019 05:00 16,2 C 15,6 C 15,0 C 83 % 1019,1 hPa 0,0 l/m 0,00 h 0,00 h 0 W/m 7,9 km/h (2 Bft) 99,14 %
04.09.2019 06:00 15,9 C 15,0 C 14,8 C 83 % 1018,8 hPa 0,0 l/m 0,00 h 0,00 h 4 W/m 9,1 km/h (2 Bft) 95,17 %
04.09.2019 07:00 15,7 C 15,1 C 14,8 C 83 % 1018,7 hPa 0,0 l/m 0,00 h 0,00 h 24 W/m 10,2 km/h (2 Bft) 98,43 %
04.09.2019 08:00 15,8 C 15,6 C 15,2 C 82 % 1018,3 hPa 0,0 l/m 0,00 h 0,00 h 61 W/m 12,1 km/h (2 Bft) 99,65 %
04.09.2019 09:00 16,3 C 16,6 C 16,0 C 81 % 1018,0 hPa 0,0 l/m 0,17 h 0,00 h 128 W/m 15,1 km/h (3 Bft) 94,94 %
04.09.2019 10:00 18,1 C 20,7 C 20,5 C 73 % 1017,4 hPa 0,0 l/m 0,87 h 0,00 h 441 W/m 20,4 km/h (4 Bft) 97,80 %
04.09.2019 11:00 20,4 C 24,3 C 20,5 C 65 % 1016,7 hPa 0,0 l/m 1,00 h 0,00 h 677 W/m 21,6 km/h (4 Bft) 98,43 %
04.09.2019 12:00 22,0 C 26,3 C 21,5 C 61 % 1016,0 hPa 0,0 l/m 1,00 h 0,00 h 776 W/m 21,1 km/h (4 Bft) 97,50 %
04.09.2019 13:00 23,1 C 26,6 C 23,7 C 59 % 1015,0 hPa 0,0 l/m 1,00 h 0,00 h 762 W/m 21,0 km/h (4 Bft) 98,29 %
04.09.2019 14:00 24,4 C 27,1 C 24,9 C 56 % 1014,2 hPa 0,0 l/m 0,87 h 0,00 h 570 W/m 19,8 km/h (4 Bft) 96,01 %
04.09.2019 15:00 23,6 C 24,0 C 23,3 C 58 % 1013,7 hPa 0,0 l/m 0,10 h 0,00 h 284 W/m 18,7 km/h (3 Bft) 98,58 %
04.09.2019 16:00 22,9 C 21,9 C 21,6 C 61 % 1013,6 hPa 0,0 l/m 0,00 h 0,17 h 131 W/m 15,7 km/h (3 Bft) 97,65 %
04.09.2019 17:00 21,3 C 19,4 C 19,5 C 66 % 1014,2 hPa 0,4 l/m 0,00 h 0,27 h 50 W/m 14,0 km/h (3 Bft) 96,92 %
04.09.2019 18:00 17,7 C 15,1 C 15,2 C 88 % 1014,6 hPa 0,6 l/m 0,00 h 0,80 h 27 W/m 5,0 km/h (1 Bft) 99,19 %
04.09.2019 19:00 16,5 C 14,6 C 14,7 C 92 % 1014,6 hPa 0,2 l/m 0,30 h 0,60 h 20 W/m 11,0 km/h (2 Bft) 96,01 %
04.09.2019 20:00 16,0 C 14,4 C 14,4 C 93 % 1014,6 hPa 0,0 l/m 0,07 h 0,00 h 12 W/m 8,4 km/h (2 Bft) 97,01 %
04.09.2019 21:00 15,7 C 14,1 C 14,0 C 94 % 1015,0 hPa 0,0 l/m 0,00 h 0,00 h 0 W/m 7,0 km/h (2 Bft) 99,86 %
04.09.2019 22:00 15,4 C 14,2 C 13,9 C 95 % 1015,1 hPa 0,8 l/m 0,00 h 0,57 h 0 W/m 6,2 km/h (2 Bft) 96,66 %
04.09.2019 23:00 15,0 C 13,3 C 13,2 C 95 % 1015,3 hPa 0,2 l/m 0,00 h 0,10 h 0 W/m 1,6 km/h (1 Bft) 95,80 %
05.09.2019 00:00 14,3 C 12,7 C 12,5 C 95 % 1015,1 hPa 0,0 l/m 0,00 h 0,00 h 0 W/m 0,4 km/h (0 Bft) 99,54 %
05.09.2019 01:00 13,8 C 12,3 C 12,2 C 96 % 1015,2 hPa 0,0 l/m 0,00 h 0,00 h 0 W/m 4,7 km/h (1 Bft) 96,72 %
05.09.2019 02:00 13,4 C 12,1 C 12,0 C 96 % 1015,1 hPa 0,0 l/m 0,00 h 0,00 h 0 W/m 4,9 km/h (1 Bft) 96,79 %
05.09.2019 03:00 12,7 C 11,5 C 11,3 C 96 % 1015,3 hPa 0,0 l/m 0,00 h 0,00 h 0 W/m 6,9 km/h (2 Bft) 98,01 %
05.09.2019 04:00 12,2 C 11,1 C 10,7 C 95 % 1015,4 hPa 0,0 l/m 0,00 h 0,00 h 0 W/m 8,5 km/h (2 Bft) 96,86 %
05.09.2019 05:00 11,9 C 11,1 C 10,8 C 93 % 1015,6 hPa 0,0 l/m 0,00 h 0,00 h 0 W/m 10,1 km/h (2 Bft) 98,72 %
05.09.2019 06:00 11,8 C 11,1 C 11,1 C 94 % 1016,2 hPa 0,0 l/m 0,00 h 0,00 h 5 W/m 9,5 km/h (2 Bft) 95,84 %
05.09.2019 07:00 12,1 C 11,9 C 11,5 C 94 % 1016,8 hPa 0,0 l/m 0,00 h 0,00 h 26 W/m 9,0 km/h (2 Bft) 96,51 %
05.09.2019 08:00 12,6 C 12,6 C 12,2 C 94 % 1017,5 hPa 0,0 l/m 0,00 h 0,00 h 55 W/m 11,7 km/h (2 Bft) 99,16 %
05.09.2019 09:00 14,0 C 16,7 C 14,5 C 93 % 1018,1 hPa 0,0 l/m 0,73 h 0,00 h 277 W/m 10,4 km/h (2 Bft) 96,98 %
05.09.2019 10:00 15,9 C 18,4 C 17,7 C 84 % 1019,0 hPa 0,0 l/m 0,60 h 0,00 h 343 W/m 13,7 km/h (3 Bft) 98,19 %
05.09.2019 11:00 17,6 C 21,9 C 18,1 C 76 % 1019,4 hPa 0,0 l/m 0,77 h 0,00 h 535 W/m 12,3 km/h (3 Bft) 96,52 %
05.09.2019 12:00 18,9 C 20,2 C 17,8 C 70 % 1019,9 hPa 0,0 l/m 0,27 h 0,13 h 330 W/m 12,8 km/h (3 Bft) 96,86 %
05.09.2019 13:00 17,7 C 20,0 C 17,8 C 74 % 1020,7 hPa 0,0 l/m 0,37 h 0,00 h 394 W/m 13,9 km/h (3 Bft) 99,15 %
05.09.2019 14:00 18,8 C 22,7 C 18,9 C 68 % 1021,2 hPa 0,0 l/m 0,70 h 0,03 h 595 W/m 15,7 km/h (3 Bft) 97,75 %
05.09.2019 15:00 18,6 C 19,5 C 17,9 C 67 % 1021,8 hPa 0,0 l/m 0,27 h 0,10 h 243 W/m 14,8 km/h (3 Bft) 96,12 %
05.09.2019 16:00 19,4 C 23,3 C 19,8 C 67 % 1022,3 hPa 0,0 l/m 0,77 h 0,13 h 492 W/m 11,1 km/h (2 Bft) 96,10 %
05.09.2019 17:00 18,6 C 19,1 C 17,2 C 64 % 1023,0 hPa 0,0 l/m 0,43 h 0,00 h 217 W/m 14,4 km/h (3 Bft) 99,51 %
05.09.2019 18:00 16,4 C 15,8 C 15,4 C 71 % 1023,6 hPa 0,0 l/m 0,00 h 0,00 h 70 W/m 12,1 km/h (2 Bft) 97,32 %
05.09.2019 19:00 15,6 C 14,6 C 14,4 C 72 % 1024,2 hPa 0,0 l/m 0,00 h 0,00 h 35 W/m 12,1 km/h (2 Bft) 95,40 %
05.09.2019 20:00 14,3 C 12,3 C 12,4 C 75 % 1025,0 hPa 0,0 l/m 0,00 h 0,00 h 6 W/m 5,0 km/h (1 Bft) 99,42 %
05.09.2019 21:00 13,1 C 11,3 C 11,2 C 78 % 1025,5 hPa 0,0 l/m 0,00 h 0,00 h 0 W/m 0,7 km/h (0 Bft) 98,66 %
05.09.2019 22:00 12,5 C 11,7 C 11,7 C 82 % 1025,9 hPa 0,0 l/m 0,00 h 0,00 h 0 W/m 2,6 km/h (1 Bft) 95,02 %
05.09.2019 23:00 12,2 C 10,1 C 10,0 C 84 % 1026,2 hPa 0,0 l/m 0,00 h 0,00 h 0 W/m 0,9 km/h (0 Bft) 97,87 %
06.09.2019 00:00 11,1 C 9,1 C 8,9 C 85 % 1026,5 hPa 0,0 l/m 0,00 h 0,00 h 0 W/m 0,6 km/h (0 Bft) 98,29 %
06.09.2019 01:00 10,1 C 8,3 C 8,2 C 88 % 1026,9 hPa 0,0 l/m 0,00 h 0,00 h 0 W/m 0,3 km/h (0 Bft) 98,72 %
06.09.2019 02:00 9,4 C 7,7 C 7,5 C 89 % 1026,7 hPa 0,0 l/m 0,00 h 0,00 h 0 W/m 0,0 km/h (0 Bft) 96,64 %
06.09.2019 03:00 8,8 C 7,5 C 7,1 C 90 % 1026,4 hPa 0,0 l/m 0,00 h 0,00 h 0 W/m 0,0 km/h (0 Bft) 97,00 %
06.09.2019 04:00 8,4 C 6,8 C 6,7 C 91 % 1026,1 hPa 0,0 l/m 0,00 h 0,00 h 0 W/m 0,2 km/h (0 Bft) 97,02 %
06.09.2019 05:00 7,8 C 6,3 C 6,1 C 91 % 1026,1 hPa 0,0 l/m 0,00 h 0,00 h 0 W/m 0,0 km/h (0 Bft) 97,65 %
06.09.2019 06:00 7,5 C 6,1 C 5,9 C 92 % 1026,1 hPa 0,0 l/m 0,00 h 0,00 h 1 W/m 0,4 km/h (0 Bft) 98,16 %
06.09.2019 07:00 7,7 C 7,2 C 7,1 C 94 % 1026,0 hPa 0,0 l/m 0,00 h 0,00 h 19 W/m 4,2 km/h (1 Bft) 98,34 %
06.09.2019 08:00 8,7 C 9,3 C 8,8 C 96 % 1026,0 hPa 0,0 l/m 0,00 h 0,00 h 50 W/m 7,6 km/h (2 Bft) 95,02 %
06.09.2019 09:00 10,7 C 14,8 C 12,7 C 95 % 1026,0 hPa 0,0 l/m 0,80 h 0,00 h 329 W/m 11,6 km/h (2 Bft) 99,07 %
06.09.2019 10:00 14,8 C 19,0 C 18,3 C 77 % 1025,9 hPa 0,0 l/m 1,00 h 0,00 h 477 W/m 12,4 km/h (3 Bft) 97,15 %
06.09.2019 11:00 16,5 C 20,3 C 16,7 C 67 % 1025,4 hPa 0,0 l/m 1,00 h 0,00 h 600 W/m 13,3 km/h (3 Bft) 98,79 %
06.09.2019 12:00 17,9 C 22,3 C 17,6 C 59 % 1024,6 hPa 0,0 l/m 1,00 h 0,00 h 685 W/m 15,2 km/h (3 Bft) 98,49 %
06.09.2019 13:00 19,3 C 23,6 C 19,9 C 51 % 1023,9 hPa 0,0 l/m 1,00 h 0,00 h 783 W/m 17,2 km/h (3 Bft) 96,08 %
06.09.2019 14:00 20,4 C 25,0 C 20,6 C 49 % 1023,1 hPa 0,0 l/m 1,00 h 0,00 h 767 W/m 14,5 km/h (3 Bft) 97,51 %
06.09.2019 15:00 21,0 C 24,8 C 20,0 C 48 % 1022,4 hPa 0,0 l/m 1,00 h 0,00 h 678 W/m 14,4 km/h (3 Bft) 98,15 %
06.09.2019 16:00 20,9 C 22,6 C 20,4 C 48 % 1021,6 hPa 0,0 l/m 0,83 h 0,00 h 450 W/m 16,0 km/h (3 Bft) 98,15 %
06.09.2019 17:00 19,8 C 20,3 C 19,0 C 49 % 1021,2 hPa 0,0 l/m 0,43 h 0,00 h 227 W/m 16,8 km/h (3 Bft) 96,36 %
06.09.2019 18:00 19,5 C 18,8 C 18,3 C 49 % 1020,8 hPa 0,0 l/m 0,10 h 0,00 h 85 W/m 7,8 km/h (2 Bft) 98,71 %
06.09.2019 19:00 18,6 C 17,3 C 17,1 C 51 % 1020,5 hPa 0,0 l/m 0,00 h 0,00 h 22 W/m 4,3 km/h (1 Bft) 98,51 %
06.09.2019 20:00 17,8 C 16,7 C 16,6 C 54 % 1020,3 hPa 0,0 l/m 0,00 h 0,00 h 0 W/m 3,9 km/h (1 Bft) 94,52 %
06.09.2019 21:00 17,4 C 16,3 C 16,2 C 56 % 1019,9 hPa 0,0 l/m 0,00 h 0,00 h 0 W/m 8,6 km/h (2 Bft) 99,36 %
06.09.2019 22:00 17,0 C 15,9 C 15,7 C 59 % 1019,8 hPa 0,0 l/m 0,00 h 0,00 h 0 W/m 6,9 km/h (2 Bft) 99,57 %
06.09.2019 23:00 16,5 C 15,6 C 15,3 C 63 % 1019,6 hPa 0,0 l/m 0,00 h 0,03 h 0 W/m 4,6 km/h (1 Bft) 93,95 %
07.09.2019 00:00 16,0 C 13,3 C 13,2 C 73 % 1019,5 hPa 0,2 l/m 0,00 h 0,83 h 0 W/m 5,4 km/h (1 Bft) 98,37 %
07.09.2019 01:00 14,5 C 12,2 C 11,9 C 83 % 1019,3 hPa 0,2 l/m 0,00 h 0,40 h 0 W/m 3,7 km/h (1 Bft) 99,00 %
07.09.2019 02:00 14,2 C 13,2 C 12,5 C 85 % 1019,0 hPa 0,0 l/m 0,00 h 0,00 h 0 W/m 2,3 km/h (1 Bft) 96,30 %
07.09.2019 03:00 14,3 C 13,4 C 13,2 C 85 % 1018,8 hPa 0,0 l/m 0,00 h 0,13 h 0 W/m 10,6 km/h (2 Bft) 98,15 %
07.09.2019 04:00 14,2 C 13,3 C 12,9 C 87 % 1018,6 hPa 0,0 l/m 0,00 h 0,03 h 0 W/m 10,9 km/h (2 Bft) 96,07 %
07.09.2019 05:00 13,9 C 12,3 C 11,9 C 90 % 1018,2 hPa 0,2 l/m 0,00 h 0,20 h 0 W/m 3,7 km/h (1 Bft) 97,01 %
07.09.2019 06:00 13,6 C 12,2 C 11,8 C 93 % 1018,0 hPa 0,0 l/m 0,00 h 0,00 h 0 W/m 3,2 km/h (1 Bft) 99,48 %
07.09.2019 07:00 13,2 C 12,0 C 11,7 C 94 % 1018,2 hPa 0,0 l/m 0,00 h 0,00 h 14 W/m 0,7 km/h (0 Bft) 95,53 %
07.09.2019 08:00 13,2 C 12,8 C 12,2 C 95 % 1018,4 hPa 0,0 l/m 0,00 h 0,00 h 71 W/m 2,7 km/h (1 Bft) 97,23 %
07.09.2019 09:00 14,2 C 15,4 C 14,2 C 95 % 1018,7 hPa 0,0 l/m 0,00 h 0,00 h 149 W/m 3,3 km/h (1 Bft) 99,43 %
07.09.2019 10:00 15,5 C 17,7 C 16,4 C 90 % 1019,1 hPa 0,0 l/m 0,17 h 0,00 h 233 W/m 1,5 km/h (1 Bft) 95,51 %
07.09.2019 11:00 17,8 C 23,7 C 18,0 C 79 % 1018,8 hPa 0,0 l/m 0,87 h 0,00 h 629 W/m 6,4 km/h (2 Bft) 96,15 %
07.09.2019 12:00 19,4 C 22,9 C 18,4 C 71 % 1018,4 hPa 0,0 l/m 0,63 h 0,23 h 538 W/m 6,1 km/h (2 Bft) 98,64 %
07.09.2019 13:00 18,3 C 16,2 C 14,9 C 74 % 1018,5 hPa 0,6 l/m 0,00 h 0,63 h 138 W/m 5,1 km/h (1 Bft) 97,51 %
07.09.2019 14:00 18,3 C 21,4 C 16,4 C 82 % 1018,4 hPa 0,0 l/m 0,87 h 0,00 h 667 W/m 6,1 km/h (2 Bft) 98,29 %
07.09.2019 15:00 20,2 C 23,0 C 17,7 C 69 % 1018,2 hPa 0,0 l/m 0,53 h 0,00 h 387 W/m 6,0 km/h (2 Bft) 95,93 %
07.09.2019 16:00 18,7 C 18,1 C 17,4 C 70 % 1018,1 hPa 0,0 l/m 0,00 h 0,00 h 124 W/m 7,0 km/h (2 Bft) 98,05 %
07.09.2019 17:00 18,3 C 20,3 C 17,6 C 71 % 1018,5 hPa 0,0 l/m 0,63 h 0,00 h 260 W/m 6,9 km/h (2 Bft) 98,00 %
07.09.2019 18:00 18,2 C 17,5 C 16,2 C 68 % 1018,5 hPa 0,0 l/m 0,07 h 0,00 h 79 W/m 4,4 km/h (1 Bft) 96,46 %
07.09.2019 19:00 17,0 C 16,0 C 15,6 C 70 % 1018,7 hPa 0,0 l/m 0,00 h 0,00 h 24 W/m 1,3 km/h (1 Bft) 98,36 %
07.09.2019 20:00 16,3 C 14,5 C 14,3 C 73 % 1019,1 hPa 0,0 l/m 0,00 h 0,00 h 3 W/m 1,3 km/h (1 Bft) 97,29 %
07.09.2019 21:00 15,1 C 13,4 C 13,4 C 79 % 1019,7 hPa 0,0 l/m 0,00 h 0,00 h 0 W/m 0,1 km/h (0 Bft) 95,73 %
07.09.2019 22:00 14,3 C 13,3 C 12,9 C 83 % 1019,8 hPa 0,0 l/m 0,00 h 0,00 h 0 W/m 0,5 km/h (0 Bft) 99,36 %
07.09.2019 23:00 14,1 C 12,8 C 12,8 C 85 % 1019,8 hPa 0,0 l/m 0,00 h 0,00 h 0 W/m 0,1 km/h (0 Bft) 98,71 %
08.09.2019 00:00 13,7 C 12,3 C 12,3 C 87 % 1019,8 hPa 0,0 l/m 0,00 h 0,00 h 0 W/m 0,3 km/h (0 Bft) 95,08 %
08.09.2019 01:00 13,3 C 12,5 C 12,3 C 90 % 1019,7 hPa 0,0 l/m 0,00 h 0,00 h 0 W/m 2,9 km/h (1 Bft) 98,79 %
08.09.2019 02:00 13,2 C 12,2 C 12,2 C 92 % 1019,6 hPa 0,0 l/m 0,00 h 0,00 h 0 W/m 6,5 km/h (2 Bft) 97,58 %
08.09.2019 03:00 13,0 C 12,2 C 12,2 C 92 % 1019,5 hPa 0,0 l/m 0,00 h 0,00 h 0 W/m 2,9 km/h (1 Bft) 97,22 %
08.09.2019 04:00 13,1 C 11,9 C 11,9 C 93 % 1019,4 hPa 1,2 l/m 0,00 h 0,53 h 0 W/m 0,5 km/h (0 Bft) 97,60 %
08.09.2019 05:00 12,9 C 11,5 C 11,5 C 94 % 1019,4 hPa 0,8 l/m 0,00 h 0,20 h 0 W/m 2,2 km/h (1 Bft) 96,73 %
08.09.2019 06:00 12,3 C 11,1 C 11,1 C 95 % 1019,4 hPa 0,0 l/m 0,00 h 0,00 h 0 W/m 2,5 km/h (1 Bft) 98,02 %
08.09.2019 07:00 12,1 C 11,3 C 11,1 C 96 % 1019,6 hPa 0,2 l/m 0,00 h 0,00 h 20 W/m 1,0 km/h (0 Bft) 98,43 %
08.09.2019 08:00 12,5 C 12,4 C 11,9 C 97 % 1019,5 hPa 0,0 l/m 0,00 h 0,00 h 79 W/m 4,4 km/h (1 Bft) 94,87 %
08.09.2019 09:00 13,4 C 15,4 C 13,2 C 97 % 1019,5 hPa 0,0 l/m 0,60 h 0,00 h 215 W/m 3,2 km/h (1 Bft) 99,36 %
08.09.2019 10:00 14,5 C 17,6 C 15,5 C 94 % 1019,5 hPa 0,0 l/m 0,63 h 0,00 h 299 W/m 5,6 km/h (1 Bft) 98,22 %
08.09.2019 11:00 15,3 C 16,7 C 15,3 C 86 % 1019,5 hPa 0,0 l/m 0,10 h 0,07 h 202 W/m 4,9 km/h (1 Bft) 97,08 %
08.09.2019 12:00 15,7 C 16,6 C 15,5 C 84 % 1019,5 hPa 0,0 l/m 0,13 h 0,13 h 216 W/m 4,6 km/h (1 Bft) 97,24 %
08.09.2019 13:00 15,6 C 14,3 C 13,4 C 88 % 1019,4 hPa 0,6 l/m 0,00 h 0,70 h 229 W/m 3,3 km/h (1 Bft) 96,15 %
08.09.2019 14:00 15,4 C 14,7 C 14,0 C 92 % 1019,2 hPa 0,8 l/m 0,17 h 0,83 h 275 W/m 2,2 km/h (1 Bft) 98,22 %
08.09.2019 15:00 15,4 C 15,5 C 14,0 C 90 % 1019,2 hPa 0,0 l/m 0,30 h 0,03 h 257 W/m 5,9 km/h (2 Bft) 98,36 %
08.09.2019 16:00 15,5 C 17,1 C 13,8 C 87 % 1018,7 hPa 0,0 l/m 0,50 h 0,00 h 289 W/m 2,9 km/h (1 Bft) 95,73 %
08.09.2019 17:00 16,3 C 17,0 C 13,9 C 83 % 1018,6 hPa 0,0 l/m 0,03 h 0,00 h 153 W/m 2,0 km/h (1 Bft) 98,86 %
08.09.2019 18:00 16,0 C 15,6 C 13,1 C 80 % 1018,4 hPa 0,0 l/m 0,00 h 0,00 h 74 W/m 0,9 km/h (0 Bft) 97,68 %
08.09.2019 19:00 15,5 C 14,4 C 13,0 C 79 % 1018,5 hPa 0,0 l/m 0,00 h 0,00 h 20 W/m 0,0 km/h (0 Bft) 96,16 %
08.09.2019 20:00 14,8 C 12,8 C 12,1 C 82 % 1018,6 hPa 0,0 l/m 0,00 h 0,00 h 3 W/m 0,0 km/h (0 Bft) 98,50 %
08.09.2019 21:00 13,9 C 12,4 C 11,7 C 86 % 1018,6 hPa 0,0 l/m 0,00 h 0,00 h 0 W/m 0,0 km/h (0 Bft) 96,72 %
08.09.2019 22:00 13,5 C 12,8 C 12,1 C 87 % 1018,6 hPa 0,0 l/m 0,00 h 0,00 h 0 W/m 0,0 km/h (0 Bft) 98,58 %
08.09.2019 23:00 13,3 C 12,4 C 11,8 C 88 % 1018,5 hPa 0,0 l/m 0,00 h 0,00 h 0 W/m 0,0 km/h (0 Bft) 97,36 %
Min-Datum _ 06.09.19 06.09.19 06.09.19 02.09.19 04.09.19 - - - - 02.09.19 04.09.19
_ Min-Zeit 06:54 06:36 06:08 15:32 16:14 - - - - 00:00 23:32
Minimum _ 7,3 C 5,6 C 5,6 C 44 % 1013,4 hPa - - - - 0,0 km/h (0 Bft) 89,36 %
Max-Datum _ 04.09.19 02.09.19 02.09.19 06.09.19 06.09.19 08.09.19 02.09.19 04.09.19 05.09.19 03.09.19 02.09.19
_ Max-Zeit 14:30 13:48 13:50 09:26 01:14 04:56 11:40 18:08 13:24 12:40 01:48
Maximum _ 24,8 C 31,1 C 29,4 C 97 % 1027,0 hPa 1,2 l/m 0,08 h 0,07 h 988 W/m 41,8 km/h
O (6 Bft)
100,00 %
Durchschnitt _ 15,8 C 16,0 C 14,9 C 78 % 1020,8 hPa #7,0 l/m #36:02 h #7:56 h 262 W/m 6,7 km/h (2 Bft) 97,49 %
© 2019 W. Hausmann